^^
Saratoga-Weather Station Historical Data
Daily Summary for June 28, 2020 Units:  Both    English   Metric
Daily Weekly Monthly Yearly Custom
  High: Low: Average:
Temperature: 77.9 °F /  25.5 °C 62.6 °F /  17 °C 71.6 °F /  22 °C
Dew Point: 62.2 °F /  16.8 °C 49.8 °F /  9.9 °C 55.9 °F /  13.3 °C
Humidity: 75% 46% 59%
Wind Speed: 13mph /  20.9km/h - 4.3mph /  6.9km/h
Wind Gust: 17mph /  27.4km/h - -
Wind- - West
Pressure: 30 in /  1016.6 hPa 29.8 in /  1008.1 hPa -
Precipitation: 0 in /  0.0 mm    
Historical Graphs
 
 
Tabular Data for June 28, 2020
Time Temperature Dew Point Pressure Wind Wind Speed Wind Gust Humidity Rainfall Rate (Hourly) solar
00:02 74.7 °F /  23.7 °C 57.4 °F /  14.1 °C 29.8in /  1008.1hPa SW 0.9mph /  1.4km/h 1mph /  1.6km/h 55% 0in /  0.0mm 0 W/m2
00:07 75 °F /  23.9 °C 57.7 °F /  14.3 °C 29.8in /  1008.1hPa NNW 2mph /  3.2km/h 3mph /  4.8km/h 55% 0in /  0.0mm 0 W/m2
00:12 75.4 °F /  24.1 °C 57.6 °F /  14.2 °C 29.8in /  1008.1hPa West 0.9mph /  1.4km/h 3mph /  4.8km/h 54% 0in /  0.0mm 0 W/m2
00:18 75.6 °F /  24.2 °C 57.7 °F /  14.3 °C 29.8in /  1008.1hPa Calm   2mph /  3.2km/h 54% 0in /  0.0mm 0 W/m2
00:23 75.7 °F /  24.3 °C 57.9 °F /  14.4 °C 29.8in /  1008.1hPa West 0.9mph /  1.4km/h 4mph /  6.4km/h 54% 0in /  0.0mm 0 W/m2
00:28 75.7 °F /  24.3 °C 57.4 °F /  14.1 °C 29.8in /  1008.1hPa SW 2.9mph /  4.7km/h 3mph /  4.8km/h 53% 0in /  0.0mm 0 W/m2
00:33 75.9 °F /  24.4 °C 57.6 °F /  14.2 °C 29.8in /  1008.1hPa WSW 0.9mph /  1.4km/h 6mph /  9.7km/h 53% 0in /  0.0mm 0 W/m2
00:38 76.3 °F /  24.6 °C 57.9 °F /  14.4 °C 29.8in /  1008.1hPa WNW 2mph /  3.2km/h 4mph /  6.4km/h 53% 0in /  0.0mm 0 W/m2
00:43 76.5 °F /  24.7 °C 58.1 °F /  14.5 °C 29.8in /  1008.1hPa West 2mph /  3.2km/h 2mph /  3.2km/h 53% 0in /  0.0mm 0 W/m2
00:48 76.3 °F /  24.6 °C 57.4 °F /  14.1 °C 29.8in /  1008.1hPa West 2mph /  3.2km/h 2mph /  3.2km/h 52% 0in /  0.0mm 0 W/m2
00:53 76.3 °F /  24.6 °C 57.4 °F /  14.1 °C 29.8in /  1008.1hPa West 0.9mph /  1.4km/h 5mph /  8km/h 52% 0in /  0.0mm 0 W/m2
00:58 75.9 °F /  24.4 °C 57 °F /  13.9 °C 29.8in /  1008.5hPa West 0.9mph /  1.4km/h 4mph /  6.4km/h 52% 0in /  0.0mm 0 W/m2
01:03 75.9 °F /  24.4 °C 57 °F /  13.9 °C 29.8in /  1008.5hPa South 0.9mph /  1.4km/h 7mph /  11.3km/h 52% 0in /  0.0mm 0 W/m2
01:08 76.1 °F /  24.5 °C 56.7 °F /  13.7 °C 29.8in /  1008.5hPa West 4mph /  6.4km/h 10mph /  16.1km/h 51% 0in /  0.0mm 0 W/m2
01:13 75.9 °F /  24.4 °C 56.5 °F /  13.6 °C 29.8in /  1008.5hPa West 4mph /  6.4km/h 7mph /  11.3km/h 51% 0in /  0.0mm 0 W/m2
01:18 75.7 °F /  24.3 °C 56.3 °F /  13.5 °C 29.8in /  1008.5hPa WNW 0.9mph /  1.4km/h 10mph /  16.1km/h 51% 0in /  0.0mm 0 W/m2
01:23 75.6 °F /  24.2 °C 56.7 °F /  13.7 °C 29.8in /  1008.5hPa West 6mph /  9.7km/h 7mph /  11.3km/h 52% 0in /  0.0mm 0 W/m2
01:28 75.4 °F /  24.1 °C 56.5 °F /  13.6 °C 29.8in /  1008.5hPa West 6.9mph /  11.1km/h 8mph /  12.9km/h 52% 0in /  0.0mm 0 W/m2
01:33 75 °F /  23.9 °C 56.1 °F /  13.4 °C 29.8in /  1008.5hPa NW 4.9mph /  7.9km/h 9mph /  14.5km/h 52% 0in /  0.0mm 0 W/m2
01:38 74.8 °F /  23.8 °C 56.1 °F /  13.4 °C 29.8in /  1008.5hPa WNW 2.9mph /  4.7km/h 6mph /  9.7km/h 52% 0in /  0.0mm 0 W/m2
01:43 74.7 °F /  23.7 °C 56.5 °F /  13.6 °C 29.8in /  1008.5hPa West 4mph /  6.4km/h 9mph /  14.5km/h 53% 0in /  0.0mm 0 W/m2
01:48 74.5 °F /  23.6 °C 55.8 °F /  13.2 °C 29.8in /  1008.5hPa West 2.9mph /  4.7km/h 6mph /  9.7km/h 52% 0in /  0.0mm 0 W/m2
01:53 74.5 °F /  23.6 °C 56.3 °F /  13.5 °C 29.8in /  1008.5hPa West 4mph /  6.4km/h 9mph /  14.5km/h 53% 0in /  0.0mm 0 W/m2
01:58 74.1 °F /  23.4 °C 55.4 °F /  13 °C 29.8in /  1008.5hPa West 4mph /  6.4km/h 7mph /  11.3km/h 52% 0in /  0.0mm 0 W/m2
02:03 73.9 °F /  23.3 °C 55.8 °F /  13.2 °C 29.8in /  1008.5hPa West 2.9mph /  4.7km/h 6mph /  9.7km/h 53% 0in /  0.0mm 0 W/m2
02:08 73.8 °F /  23.2 °C 55.6 °F /  13.1 °C 29.8in /  1008.5hPa West 2.9mph /  4.7km/h 7mph /  11.3km/h 53% 0in /  0.0mm 0 W/m2
02:13 73.8 °F /  23.2 °C 55.6 °F /  13.1 °C 29.8in /  1008.5hPa NW 2mph /  3.2km/h 9mph /  14.5km/h 53% 0in /  0.0mm 0 W/m2
02:18 73.8 °F /  23.2 °C 55.6 °F /  13.1 °C 29.8in /  1008.5hPa WNW 2mph /  3.2km/h 4mph /  6.4km/h 53% 0in /  0.0mm 0 W/m2
02:23 73.6 °F /  23.1 °C 55.4 °F /  13 °C 29.8in /  1008.5hPa SW 4mph /  6.4km/h 6mph /  9.7km/h 53% 0in /  0.0mm 0 W/m2
02:28 73.4 °F /  23 °C 55.2 °F /  12.9 °C 29.8in /  1008.5hPa SW 2mph /  3.2km/h 8mph /  12.9km/h 53% 0in /  0.0mm 0 W/m2
02:33 73.2 °F /  22.9 °C 55.6 °F /  13.1 °C 29.8in /  1008.5hPa SW 4mph /  6.4km/h 7mph /  11.3km/h 54% 0in /  0.0mm 0 W/m2
02:38 73 °F /  22.8 °C 55.4 °F /  13 °C 29.8in /  1008.8hPa WSW 2.9mph /  4.7km/h 9mph /  14.5km/h 54% 0in /  0.0mm 0 W/m2
02:43 73 °F /  22.8 °C 55.4 °F /  13 °C 29.8in /  1008.8hPa West 6.9mph /  11.1km/h 11mph /  17.7km/h 54% 0in /  0.0mm 0 W/m2
02:48 72.9 °F /  22.7 °C 55.2 °F /  12.9 °C 29.8in /  1008.8hPa WNW 2.9mph /  4.7km/h 7mph /  11.3km/h 54% 0in /  0.0mm 0 W/m2
02:53 72.9 °F /  22.7 °C 55.2 °F /  12.9 °C 29.8in /  1008.8hPa WNW 8.1mph /  13km/h 8mph /  12.9km/h 54% 0in /  0.0mm 0 W/m2
02:58 72.7 °F /  22.6 °C 55.6 °F /  13.1 °C 29.8in /  1008.8hPa WNW 8.1mph /  13km/h 11mph /  17.7km/h 55% 0in /  0.0mm 0 W/m2
03:03 72.5 °F /  22.5 °C 55.4 °F /  13 °C 29.8in /  1008.8hPa SSW 4.9mph /  7.9km/h 10mph /  16.1km/h 55% 0in /  0.0mm 0 W/m2
03:08 72.3 °F /  22.4 °C 55.8 °F /  13.2 °C 29.8in /  1009.1hPa West 2.9mph /  4.7km/h 10mph /  16.1km/h 56% 0in /  0.0mm 0 W/m2
03:13 72.3 °F /  22.4 °C 56.3 °F /  13.5 °C 29.8in /  1009.1hPa SW 6.9mph /  11.1km/h 9mph /  14.5km/h 57% 0in /  0.0mm 0 W/m2
03:18 72.1 °F /  22.3 °C 56.1 °F /  13.4 °C 29.8in /  1009.1hPa West 6mph /  9.7km/h 8mph /  12.9km/h 57% 0in /  0.0mm 0 W/m2
03:23 72.1 °F /  22.3 °C 56.5 °F /  13.6 °C 29.8in /  1009.1hPa WNW 8.1mph /  13km/h 9mph /  14.5km/h 58% 0in /  0.0mm 0 W/m2
03:28 72 °F /  22.2 °C 56.3 °F /  13.5 °C 29.8in /  1009.1hPa WSW 2mph /  3.2km/h 8mph /  12.9km/h 58% 0in /  0.0mm 0 W/m2
03:33 71.8 °F /  22.1 °C 56.1 °F /  13.4 °C 29.8in /  1009.1hPa West 4mph /  6.4km/h 8mph /  12.9km/h 58% 0in /  0.0mm 0 W/m2
03:44 71.4 °F /  21.9 °C 56.3 °F /  13.5 °C 29.8in /  1009.1hPa West 6mph /  9.7km/h 11mph /  17.7km/h 59% 0in /  0.0mm 0 W/m2
03:49 71.2 °F /  21.8 °C 56.1 °F /  13.4 °C 29.8in /  1009.1hPa West 4mph /  6.4km/h 7mph /  11.3km/h 59% 0in /  0.0mm 0 W/m2
03:54 71.1 °F /  21.7 °C 56.5 °F /  13.6 °C 29.8in /  1009.1hPa NW 4mph /  6.4km/h 7mph /  11.3km/h 60% 0in /  0.0mm 0 W/m2
03:59 70.9 °F /  21.6 °C 56.3 °F /  13.5 °C 29.8in /  1009.1hPa West 4mph /  6.4km/h 4mph /  6.4km/h 60% 0in /  0.0mm 0 W/m2
04:04 70.7 °F /  21.5 °C 56.1 °F /  13.4 °C 29.8in /  1009.1hPa WSW 2.9mph /  4.7km/h 6mph /  9.7km/h 60% 0in /  0.0mm 0 W/m2
04:09 70.5 °F /  21.4 °C 55.9 °F /  13.3 °C 29.8in /  1009.1hPa WSW 2.9mph /  4.7km/h 7mph /  11.3km/h 60% 0in /  0.0mm 0 W/m2
04:14 70.3 °F /  21.3 °C 56.3 °F /  13.5 °C 29.8in /  1009.5hPa West 4mph /  6.4km/h 4mph /  6.4km/h 61% 0in /  0.0mm 0 W/m2
04:19 70.3 °F /  21.3 °C 56.7 °F /  13.7 °C 29.8in /  1009.5hPa WSW 2.9mph /  4.7km/h 6mph /  9.7km/h 62% 0in /  0.0mm 0 W/m2
04:24 70.3 °F /  21.3 °C 56.7 °F /  13.7 °C 29.8in /  1009.5hPa West 4mph /  6.4km/h 8mph /  12.9km/h 62% 0in /  0.0mm 0 W/m2
04:29 70.2 °F /  21.2 °C 57 °F /  13.9 °C 29.8in /  1009.5hPa West 6.9mph /  11.1km/h 10mph /  16.1km/h 63% 0in /  0.0mm 0 W/m2
04:34 70.2 °F /  21.2 °C 57.4 °F /  14.1 °C 29.8in /  1009.5hPa WNW 6.9mph /  11.1km/h 7mph /  11.3km/h 64% 0in /  0.0mm 0 W/m2
04:39 70 °F /  21.1 °C 57.2 °F /  14 °C 29.8in /  1009.5hPa West 6mph /  9.7km/h 7mph /  11.3km/h 64% 0in /  0.0mm 0 W/m2
04:44 70 °F /  21.1 °C 57.7 °F /  14.3 °C 29.8in /  1009.5hPa West 2.9mph /  4.7km/h 4mph /  6.4km/h 65% 0in /  0.0mm 0 W/m2
04:49 69.6 °F /  20.9 °C 57.4 °F /  14.1 °C 29.8in /  1009.5hPa NW 2mph /  3.2km/h 9mph /  14.5km/h 65% 0in /  0.0mm 0 W/m2
04:54 69.6 °F /  20.9 °C 57.7 °F /  14.3 °C 29.8in /  1009.5hPa NW 2.9mph /  4.7km/h 6mph /  9.7km/h 66% 0in /  0.0mm 0 W/m2
04:59 69.4 °F /  20.8 °C 57.9 °F /  14.4 °C 29.8in /  1009.8hPa WNW 4mph /  6.4km/h 8mph /  12.9km/h 67% 0in /  0.0mm 0 W/m2
05:04 69.3 °F /  20.7 °C 57.9 °F /  14.4 °C 29.8in /  1009.5hPa West 4mph /  6.4km/h 7mph /  11.3km/h 67% 0in /  0.0mm 0 W/m2
05:09 69.3 °F /  20.7 °C 58.3 °F /  14.6 °C 29.8in /  1009.8hPa WSW 2mph /  3.2km/h 6mph /  9.7km/h 68% 0in /  0.0mm 0 W/m2
05:14 69.1 °F /  20.6 °C 58.1 °F /  14.5 °C 29.8in /  1009.8hPa West 2mph /  3.2km/h 8mph /  12.9km/h 68% 0in /  0.0mm 0 W/m2
05:19 69.1 °F /  20.6 °C 58.1 °F /  14.5 °C 29.8in /  1009.8hPa West 4mph /  6.4km/h 4mph /  6.4km/h 68% 0in /  0.0mm 0 W/m2
05:24 69.1 °F /  20.6 °C 58.5 °F /  14.7 °C 29.8in /  1009.8hPa WNW 2.9mph /  4.7km/h 7mph /  11.3km/h 69% 0in /  0.0mm 0 W/m2
05:30 69.1 °F /  20.6 °C 58.5 °F /  14.7 °C 29.8in /  1009.8hPa South 0.9mph /  1.4km/h 3mph /  4.8km/h 69% 0in /  0.0mm 0 W/m2
05:35 68.9 °F /  20.5 °C 58.3 °F /  14.6 °C 29.8in /  1009.8hPa West 4mph /  6.4km/h 5mph /  8km/h 69% 0in /  0.0mm 0 W/m2
05:40 68.7 °F /  20.4 °C 58.1 °F /  14.5 °C 29.8in /  1010.2hPa WNW 2mph /  3.2km/h 4mph /  6.4km/h 69% 0in /  0.0mm 0 W/m2
05:45 68.7 °F /  20.4 °C 58.1 °F /  14.5 °C 29.8in /  1010.2hPa West 0.9mph /  1.4km/h 4mph /  6.4km/h 69% 0in /  0.0mm 0 W/m2
05:50 68.7 °F /  20.4 °C 58.5 °F /  14.7 °C 29.8in /  1010.2hPa West 2.9mph /  4.7km/h 3mph /  4.8km/h 70% 0in /  0.0mm 0 W/m2
05:55 68.5 °F /  20.3 °C 58.3 °F /  14.6 °C 29.8in /  1010.2hPa Calm   2mph /  3.2km/h 70% 0in /  0.0mm 0 W/m2
06:00 68.5 °F /  20.3 °C 58.3 °F /  14.6 °C 29.8in /  1010.2hPa WNW 0.9mph /  1.4km/h 3mph /  4.8km/h 70% 0in /  0.0mm 0 W/m2
06:05 68.5 °F /  20.3 °C 58.3 °F /  14.6 °C 29.8in /  1010.2hPa Calm   2mph /  3.2km/h 70% 0in /  0.0mm 0 W/m2
06:10 68.5 °F /  20.3 °C 58.3 °F /  14.6 °C 29.8in /  1010.2hPa Calm   1mph /  1.6km/h 70% 0in /  0.0mm 0 W/m2
06:15 68.5 °F /  20.3 °C 58.3 °F /  14.6 °C 29.8in /  1010.2hPa ENE 0.9mph /  1.4km/h 1mph /  1.6km/h 70% 0in /  0.0mm 5 W/m2
06:20 68.4 °F /  20.2 °C 58.3 °F /  14.6 °C 29.8in /  1010.2hPa WSW 4.9mph /  7.9km/h 7mph /  11.3km/h 70% 0in /  0.0mm 7 W/m2
06:25 68.4 °F /  20.2 °C 58.6 °F /  14.8 °C 29.8in /  1010.2hPa West 2.9mph /  4.7km/h 3mph /  4.8km/h 71% 0in /  0.0mm 11 W/m2
06:30 68.4 °F /  20.2 °C 58.6 °F /  14.8 °C 29.8in /  1010.2hPa NNW 0.9mph /  1.4km/h 7mph /  11.3km/h 71% 0in /  0.0mm 9 W/m2
06:35 68.4 °F /  20.2 °C 58.6 °F /  14.8 °C 29.8in /  1010.5hPa NW 0.9mph /  1.4km/h 1mph /  1.6km/h 71% 0in /  0.0mm 11 W/m2
06:40 68.4 °F /  20.2 °C 58.6 °F /  14.8 °C 29.8in /  1010.5hPa Calm   4mph /  6.4km/h 71% 0in /  0.0mm 14 W/m2
06:45 68.2 °F /  20.1 °C 58.8 °F /  14.9 °C 29.8in /  1010.5hPa NW 0.9mph /  1.4km/h 1mph /  1.6km/h 72% 0in /  0.0mm 35 W/m2
06:50 68.2 °F /  20.1 °C 58.8 °F /  14.9 °C 29.8in /  1010.5hPa North 0.9mph /  1.4km/h 3mph /  4.8km/h 72% 0in /  0.0mm 26 W/m2
06:55 68.2 °F /  20.1 °C 58.8 °F /  14.9 °C 29.8in /  1010.5hPa NW 2mph /  3.2km/h 3mph /  4.8km/h 72% 0in /  0.0mm 30 W/m2
07:00 68.2 °F /  20.1 °C 59.2 °F /  15.1 °C 29.8in /  1010.5hPa NNW 6mph /  9.7km/h 8mph /  12.9km/h 73% 0in /  0.0mm 26 W/m2
07:05 68.2 °F /  20.1 °C 59.2 °F /  15.1 °C 29.8in /  1010.5hPa NW 2.9mph /  4.7km/h 3mph /  4.8km/h 73% 0in /  0.0mm 23 W/m2
07:10 68.2 °F /  20.1 °C 59.2 °F /  15.1 °C 29.9in /  1010.8hPa WNW 0.9mph /  1.4km/h 8mph /  12.9km/h 73% 0in /  0.0mm 30 W/m2
07:16 68.2 °F /  20.1 °C 59.2 °F /  15.1 °C 29.9in /  1010.8hPa Calm   1mph /  1.6km/h 73% 0in /  0.0mm 44 W/m2
07:21 68.2 °F /  20.1 °C 59.5 °F /  15.3 °C 29.9in /  1010.8hPa North 2mph /  3.2km/h 2mph /  3.2km/h 74% 0in /  0.0mm 37 W/m2
07:26 68.2 °F /  20.1 °C 59.5 °F /  15.3 °C 29.9in /  1010.8hPa NW 2mph /  3.2km/h 8mph /  12.9km/h 74% 0in /  0.0mm 47 W/m2
07:31 68.4 °F /  20.2 °C 59.7 °F /  15.4 °C 29.9in /  1010.8hPa Calm   1mph /  1.6km/h 74% 0in /  0.0mm 88 W/m2
07:36 68.5 °F /  20.3 °C 59.9 °F /  15.5 °C 29.9in /  1010.8hPa NNW 4mph /  6.4km/h 6mph /  9.7km/h 74% 0in /  0.0mm 60 W/m2
07:41 68.5 °F /  20.3 °C 59.9 °F /  15.5 °C 29.9in /  1010.8hPa WSW 0.9mph /  1.4km/h 3mph /  4.8km/h 74% 0in /  0.0mm 56 W/m2
07:46 68.5 °F /  20.3 °C 59.9 °F /  15.5 °C 29.9in /  1010.8hPa WSW 2mph /  3.2km/h 2mph /  3.2km/h 74% 0in /  0.0mm 56 W/m2
07:51 68.5 °F /  20.3 °C 59.9 °F /  15.5 °C 29.9in /  1010.8hPa West 0.9mph /  1.4km/h 3mph /  4.8km/h 74% 0in /  0.0mm 49 W/m2
07:56 68.7 °F /  20.4 °C 60.1 °F /  15.6 °C 29.9in /  1010.8hPa NW 0.9mph /  1.4km/h 6mph /  9.7km/h 74% 0in /  0.0mm 58 W/m2
08:01 68.9 °F /  20.5 °C 60.3 °F /  15.7 °C 29.9in /  1010.8hPa SSE 0.9mph /  1.4km/h 3mph /  4.8km/h 74% 0in /  0.0mm 104 W/m2
08:06 69.1 °F /  20.6 °C 60.8 °F /  16 °C 29.9in /  1010.8hPa WSW 0.9mph /  1.4km/h 4mph /  6.4km/h 75% 0in /  0.0mm 190 W/m2
08:11 69.4 °F /  20.8 °C 60.8 °F /  16 °C 29.9in /  1010.8hPa North 0.9mph /  1.4km/h 4mph /  6.4km/h 74% 0in /  0.0mm 255 W/m2
08:16 70 °F /  21.1 °C 61.3 °F /  16.3 °C 29.9in /  1010.8hPa West 2.9mph /  4.7km/h 3mph /  4.8km/h 74% 0in /  0.0mm 258 W/m2
08:21 70.2 °F /  21.2 °C 61.5 °F /  16.4 °C 29.9in /  1010.8hPa WNW 2.9mph /  4.7km/h 5mph /  8km/h 74% 0in /  0.0mm 316 W/m2
08:26 70.3 °F /  21.3 °C 61.3 °F /  16.3 °C 29.9in /  1010.8hPa NW 4mph /  6.4km/h 7mph /  11.3km/h 73% 0in /  0.0mm 155 W/m2
08:31 70.3 °F /  21.3 °C 61.3 °F /  16.3 °C 29.9in /  1010.8hPa West 2mph /  3.2km/h 6mph /  9.7km/h 73% 0in /  0.0mm 84 W/m2
08:36 70.5 °F /  21.4 °C 61.9 °F /  16.6 °C 29.9in /  1010.8hPa WSW 2.9mph /  4.7km/h 7mph /  11.3km/h 74% 0in /  0.0mm 91 W/m2
08:41 70.9 °F /  21.6 °C 62.2 °F /  16.8 °C 29.9in /  1010.8hPa NNW 4mph /  6.4km/h 4mph /  6.4km/h 74% 0in /  0.0mm 134 W/m2
08:46 71.4 °F /  21.9 °C 61.9 °F /  16.6 °C 29.9in /  1011.2hPa WNW 8.9mph /  14.3km/h 14mph /  22.5km/h 72% 0in /  0.0mm 204 W/m2
08:51 71.2 °F /  21.8 °C 62.1 °F /  16.7 °C 29.9in /  1010.8hPa West 6mph /  9.7km/h 6mph /  9.7km/h 73% 0in /  0.0mm 216 W/m2
08:56 71.2 °F /  21.8 °C 61.7 °F /  16.5 °C 29.9in /  1010.8hPa WNW 2mph /  3.2km/h 14mph /  22.5km/h 72% 0in /  0.0mm 199 W/m2
09:01 71.2 °F /  21.8 °C 62.1 °F /  16.7 °C 29.9in /  1010.8hPa WNW 4mph /  6.4km/h 8mph /  12.9km/h 73% 0in /  0.0mm 186 W/m2
09:06 71.2 °F /  21.8 °C 62.1 °F /  16.7 °C 29.9in /  1010.8hPa WNW 6.9mph /  11.1km/h 12mph /  19.3km/h 73% 0in /  0.0mm 186 W/m2
09:11 71.1 °F /  21.7 °C 61.9 °F /  16.6 °C 29.9in /  1010.8hPa West 2.9mph /  4.7km/h 6mph /  9.7km/h 73% 0in /  0.0mm 102 W/m2
09:16 70.9 °F /  21.6 °C 61.9 °F /  16.6 °C 29.9in /  1010.8hPa West 4mph /  6.4km/h 7mph /  11.3km/h 73% 0in /  0.0mm 107 W/m2
09:21 70.7 °F /  21.5 °C 62.1 °F /  16.7 °C 29.9in /  1011.2hPa WNW 4.9mph /  7.9km/h 10mph /  16.1km/h 74% 0in /  0.0mm 178 W/m2
09:26 70.9 °F /  21.6 °C 62.2 °F /  16.8 °C 29.9in /  1011.2hPa West 4mph /  6.4km/h 6mph /  9.7km/h 74% 0in /  0.0mm 183 W/m2
09:31 70.9 °F /  21.6 °C 61.9 °F /  16.6 °C 29.9in /  1011.2hPa West 4mph /  6.4km/h 7mph /  11.3km/h 73% 0in /  0.0mm 172 W/m2
09:36 70.7 °F /  21.5 °C 61.7 °F /  16.5 °C 29.9in /  1011.2hPa WSW 4mph /  6.4km/h 8mph /  12.9km/h 73% 0in /  0.0mm 139 W/m2
09:41 70.5 °F /  21.4 °C 61.5 °F /  16.4 °C 29.9in /  1011.2hPa West 4mph /  6.4km/h 9mph /  14.5km/h 73% 0in /  0.0mm 102 W/m2
09:47 70.5 °F /  21.4 °C 61.9 °F /  16.6 °C 29.9in /  1011.2hPa West 4mph /  6.4km/h 7mph /  11.3km/h 74% 0in /  0.0mm 114 W/m2
09:52 70.3 °F /  21.3 °C 61.3 °F /  16.3 °C 29.9in /  1011.5hPa NW 4.9mph /  7.9km/h 7mph /  11.3km/h 73% 0in /  0.0mm 278 W/m2
09:57 70.5 °F /  21.4 °C 61.5 °F /  16.4 °C 29.9in /  1011.5hPa NW 4mph /  6.4km/h 10mph /  16.1km/h 73% 0in /  0.0mm 675 W/m2
10:02 71.2 °F /  21.8 °C 62.1 °F /  16.7 °C 29.9in /  1011.5hPa WNW 8.9mph /  14.3km/h 9mph /  14.5km/h 73% 0in /  0.0mm 290 W/m2
10:07 71.8 °F /  22.1 °C 61.9 °F /  16.6 °C 29.9in /  1011.5hPa West 6.9mph /  11.1km/h 9mph /  14.5km/h 71% 0in /  0.0mm 420 W/m2
10:12 71.6 °F /  22 °C 61.7 °F /  16.5 °C 29.9in /  1011.9hPa WNW 6.9mph /  11.1km/h 12mph /  19.3km/h 71% 0in /  0.0mm 260 W/m2
10:17 71.1 °F /  21.7 °C 61.2 °F /  16.2 °C 29.9in /  1011.9hPa WSW 8.1mph /  13km/h 8mph /  12.9km/h 71% 0in /  0.0mm 548 W/m2
10:22 70.9 °F /  21.6 °C 61 °F /  16.1 °C 29.9in /  1011.9hPa West 2.9mph /  4.7km/h 9mph /  14.5km/h 71% 0in /  0.0mm 258 W/m2
10:27 70.5 °F /  21.4 °C 59.9 °F /  15.5 °C 29.9in /  1011.9hPa WNW 8.9mph /  14.3km/h 10mph /  16.1km/h 69% 0in /  0.0mm 260 W/m2
10:32 70.3 °F /  21.3 °C 59.4 °F /  15.2 °C 29.9in /  1011.9hPa WNW 8.1mph /  13km/h 9mph /  14.5km/h 68% 0in /  0.0mm 294 W/m2
10:37 70.2 °F /  21.2 °C 59.5 °F /  15.3 °C 29.9in /  1011.9hPa West 4mph /  6.4km/h 10mph /  16.1km/h 69% 0in /  0.0mm 223 W/m2
10:42 70 °F /  21.1 °C 59.4 °F /  15.2 °C 29.9in /  1011.9hPa West 2.9mph /  4.7km/h 8mph /  12.9km/h 69% 0in /  0.0mm 216 W/m2
10:47 70 °F /  21.1 °C 59.7 °F /  15.4 °C 29.9in /  1011.9hPa West 2.9mph /  4.7km/h 8mph /  12.9km/h 70% 0in /  0.0mm 304 W/m2
10:52 70.3 °F /  21.3 °C 60.1 °F /  15.6 °C 29.9in /  1012.2hPa NW 6mph /  9.7km/h 9mph /  14.5km/h 70% 0in /  0.0mm 385 W/m2
10:57 70.3 °F /  21.3 °C 59.7 °F /  15.4 °C 29.9in /  1012.2hPa West 2mph /  3.2km/h 8mph /  12.9km/h 69% 0in /  0.0mm 258 W/m2
11:02 70.3 °F /  21.3 °C 60.1 °F /  15.6 °C 29.9in /  1012.2hPa WNW 6.9mph /  11.1km/h 9mph /  14.5km/h 70% 0in /  0.0mm 251 W/m2
11:07 70.3 °F /  21.3 °C 60.1 °F /  15.6 °C 29.9in /  1012.2hPa WNW 8.1mph /  13km/h 12mph /  19.3km/h 70% 0in /  0.0mm 563 W/m2
11:12 70.7 °F /  21.5 °C 60.1 °F /  15.6 °C 29.9in /  1011.9hPa WNW 6.9mph /  11.1km/h 8mph /  12.9km/h 69% 0in /  0.0mm 563 W/m2
11:17 71.2 °F /  21.8 °C 60.6 °F /  15.9 °C 29.9in /  1011.9hPa WNW 6.9mph /  11.1km/h 9mph /  14.5km/h 69% 0in /  0.0mm 473 W/m2
11:22 71.2 °F /  21.8 °C 59.7 °F /  15.4 °C 29.9in /  1012.2hPa West 2.9mph /  4.7km/h 7mph /  11.3km/h 67% 0in /  0.0mm 580 W/m2
11:27 71.6 °F /  22 °C 60.1 °F /  15.6 °C 29.9in /  1012.2hPa NW 8.1mph /  13km/h 10mph /  16.1km/h 67% 0in /  0.0mm 629 W/m2
11:32 71.8 °F /  22.1 °C 60.3 °F /  15.7 °C 29.9in /  1012.2hPa WNW 6.9mph /  11.1km/h 8mph /  12.9km/h 67% 0in /  0.0mm 411 W/m2
11:37 71.4 °F /  21.9 °C 59.9 °F /  15.5 °C 29.9in /  1012.5hPa West 6mph /  9.7km/h 10mph /  16.1km/h 67% 0in /  0.0mm 313 W/m2
11:42 71.2 °F /  21.8 °C 59.4 °F /  15.2 °C 29.9in /  1012.2hPa WNW 6.9mph /  11.1km/h 9mph /  14.5km/h 66% 0in /  0.0mm 297 W/m2
11:47 71.1 °F /  21.7 °C 59.2 °F /  15.1 °C 29.9in /  1012.2hPa WNW 6.9mph /  11.1km/h 10mph /  16.1km/h 66% 0in /  0.0mm 399 W/m2
11:52 71.4 °F /  21.9 °C 59 °F /  15 °C 29.9in /  1012.5hPa NW 4mph /  6.4km/h 8mph /  12.9km/h 65% 0in /  0.0mm 343 W/m2
11:57 72.1 °F /  22.3 °C 59.4 °F /  15.2 °C 29.9in /  1012.5hPa WNW 10.1mph /  16.3km/h 10mph /  16.1km/h 64% 0in /  0.0mm 350 W/m2
12:02 72 °F /  22.2 °C 59.2 °F /  15.1 °C 29.9in /  1012.5hPa WNW 6.9mph /  11.1km/h 12mph /  19.3km/h 64% 0in /  0.0mm 404 W/m2
12:07 72.1 °F /  22.3 °C 59.4 °F /  15.2 °C 29.9in /  1012.5hPa WSW 8.1mph /  13km/h 9mph /  14.5km/h 64% 0in /  0.0mm 406 W/m2
12:12 72.3 °F /  22.4 °C 59 °F /  15 °C 29.9in /  1012.5hPa West 6mph /  9.7km/h 11mph /  17.7km/h 63% 0in /  0.0mm 364 W/m2
12:17 72 °F /  22.2 °C 58.3 °F /  14.6 °C 29.9in /  1012.5hPa NNW 4.9mph /  7.9km/h 8mph /  12.9km/h 62% 0in /  0.0mm 415 W/m2
12:22 72.1 °F /  22.3 °C 58.8 °F /  14.9 °C 29.9in /  1012.5hPa West 2mph /  3.2km/h 4mph /  6.4km/h 63% 0in /  0.0mm 770 W/m2
12:32 72.7 °F /  22.6 °C 58.8 °F /  14.9 °C 29.9in /  1012.5hPa WNW 4.9mph /  7.9km/h 12mph /  19.3km/h 62% 0in /  0.0mm 810 W/m2
12:37 72.5 °F /  22.5 °C 58.8 °F /  14.9 °C 29.9in /  1012.5hPa WSW 0.9mph /  1.4km/h 8mph /  12.9km/h 62% 0in /  0.0mm 251 W/m2
12:42 72.5 °F /  22.5 °C 58.3 °F /  14.6 °C 29.9in /  1012.9hPa West 11mph /  17.7km/h 12mph /  19.3km/h 61% 0in /  0.0mm 315 W/m2
12:48 72.9 °F /  22.7 °C 58.6 °F /  14.8 °C 29.9in /  1012.9hPa WNW 6.9mph /  11.1km/h 10mph /  16.1km/h 61% 0in /  0.0mm 339 W/m2
12:53 73.6 °F /  23.1 °C 58.8 °F /  14.9 °C 29.9in /  1012.9hPa NW 11mph /  17.7km/h 15mph /  24.1km/h 60% 0in /  0.0mm 1042 W/m2
12:58 73.9 °F /  23.3 °C 59.2 °F /  15.1 °C 29.9in /  1012.9hPa NW 11mph /  17.7km/h 15mph /  24.1km/h 60% 0in /  0.0mm 1046 W/m2
13:03 73.9 °F /  23.3 °C 57.7 °F /  14.3 °C 29.9in /  1012.5hPa SW 10.1mph /  16.3km/h 12mph /  19.3km/h 57% 0in /  0.0mm 353 W/m2
13:08 74.5 °F /  23.6 °C 58.8 °F /  14.9 °C 29.9in /  1012.5hPa WNW 2.9mph /  4.7km/h 7mph /  11.3km/h 58% 0in /  0.0mm 1088 W/m2
13:13 75 °F /  23.9 °C 58.3 °F /  14.6 °C 29.9in /  1012.5hPa West 6.9mph /  11.1km/h 7mph /  11.3km/h 56% 0in /  0.0mm 949 W/m2
13:18 75 °F /  23.9 °C 57.7 °F /  14.3 °C 29.9in /  1012.5hPa West 2.9mph /  4.7km/h 11mph /  17.7km/h 55% 0in /  0.0mm 251 W/m2
13:23 74.7 °F /  23.7 °C 57.4 °F /  14.1 °C 29.9in /  1012.9hPa West 8.1mph /  13km/h 10mph /  16.1km/h 55% 0in /  0.0mm 250 W/m2
13:28 74.5 °F /  23.6 °C 57.2 °F /  14 °C 29.9in /  1012.9hPa NNW 4mph /  6.4km/h 7mph /  11.3km/h 55% 0in /  0.0mm 178 W/m2
13:33 74.5 °F /  23.6 °C 57.2 °F /  14 °C 29.9in /  1012.5hPa West 6mph /  9.7km/h 12mph /  19.3km/h 55% 0in /  0.0mm 963 W/m2
13:38 74.5 °F /  23.6 °C 56.7 °F /  13.7 °C 29.9in /  1012.9hPa NW 10.1mph /  16.3km/h 14mph /  22.5km/h 54% 0in /  0.0mm 420 W/m2
13:43 74.7 °F /  23.7 °C 56.8 °F /  13.8 °C 29.9in /  1012.9hPa WNW 4.9mph /  7.9km/h 12mph /  19.3km/h 54% 0in /  0.0mm 338 W/m2
13:48 74.7 °F /  23.7 °C 56.8 °F /  13.8 °C 29.9in /  1012.5hPa West 10.1mph /  16.3km/h 13mph /  20.9km/h 54% 0in /  0.0mm 979 W/m2
13:53 75.2 °F /  24 °C 56.8 °F /  13.8 °C 29.9in /  1012.5hPa NW 6mph /  9.7km/h 7mph /  11.3km/h 53% 0in /  0.0mm 977 W/m2
13:58 75.7 °F /  24.3 °C 56.8 °F /  13.8 °C 29.9in /  1012.5hPa WNW 4mph /  6.4km/h 5mph /  8km/h 52% 0in /  0.0mm 947 W/m2
14:03 76.5 °F /  24.7 °C 57 °F /  13.9 °C 29.9in /  1012.5hPa North 2mph /  3.2km/h 11mph /  17.7km/h 51% 0in /  0.0mm 965 W/m2
14:08 76.8 °F /  24.9 °C 56.3 °F /  13.5 °C 29.9in /  1012.5hPa NW 4.9mph /  7.9km/h 9mph /  14.5km/h 49% 0in /  0.0mm 1042 W/m2
14:13 76.6 °F /  24.8 °C 56.7 °F /  13.7 °C 29.9in /  1012.5hPa WSW 12.1mph /  19.5km/h 12mph /  19.3km/h 50% 0in /  0.0mm 1021 W/m2
14:18 76.5 °F /  24.7 °C 56.5 °F /  13.6 °C 29.9in /  1012.5hPa West 2.9mph /  4.7km/h 9mph /  14.5km/h 50% 0in /  0.0mm 907 W/m2
14:24 75.6 °F /  24.2 °C 55.6 °F /  13.1 °C 29.9in /  1012.5hPa West 10.1mph /  16.3km/h 14mph /  22.5km/h 50% 0in /  0.0mm 241 W/m2
14:29 74.8 °F /  23.8 °C 55.6 °F /  13.1 °C 29.9in /  1012.5hPa SW 4mph /  6.4km/h 14mph /  22.5km/h 51% 0in /  0.0mm 216 W/m2
14:34 74.8 °F /  23.8 °C 56.1 °F /  13.4 °C 29.9in /  1012.2hPa WNW 4mph /  6.4km/h 8mph /  12.9km/h 52% 0in /  0.0mm 1065 W/m2
14:39 75.7 °F /  24.3 °C 56.3 °F /  13.5 °C 29.9in /  1012.2hPa West 2mph /  3.2km/h 8mph /  12.9km/h 51% 0in /  0.0mm 810 W/m2
14:44 76.6 °F /  24.8 °C 56.1 °F /  13.4 °C 29.9in /  1012.5hPa WSW 8.9mph /  14.3km/h 13mph /  20.9km/h 49% 0in /  0.0mm 921 W/m2
14:49 76.8 °F /  24.9 °C 56.3 °F /  13.5 °C 29.9in /  1012.5hPa NNW 8.1mph /  13km/h 8mph /  12.9km/h 49% 0in /  0.0mm 895 W/m2
14:54 77.5 °F /  25.3 °C 56.8 °F /  13.8 °C 29.9in /  1012.5hPa NW 0.9mph /  1.4km/h 6mph /  9.7km/h 49% 0in /  0.0mm 895 W/m2
14:59 77.7 °F /  25.4 °C 56.5 °F /  13.6 °C 29.9in /  1012.5hPa WSW 4mph /  6.4km/h 9mph /  14.5km/h 48% 0in /  0.0mm 846 W/m2
15:04 77.9 °F /  25.5 °C 56.7 °F /  13.7 °C 29.9in /  1012.5hPa WSW 6.9mph /  11.1km/h 8mph /  12.9km/h 48% 0in /  0.0mm 661 W/m2
15:09 77.4 °F /  25.2 °C 56.1 °F /  13.4 °C 29.9in /  1012.5hPa West 8.1mph /  13km/h 8mph /  12.9km/h 48% 0in /  0.0mm 536 W/m2
15:14 76.8 °F /  24.9 °C 56.3 °F /  13.5 °C 29.9in /  1012.5hPa WNW 6.9mph /  11.1km/h 9mph /  14.5km/h 49% 0in /  0.0mm 443 W/m2
15:19 77 °F /  25 °C 55.8 °F /  13.2 °C 29.9in /  1012.5hPa West 4mph /  6.4km/h 8mph /  12.9km/h 48% 0in /  0.0mm 738 W/m2
15:24 76.8 °F /  24.9 °C 55 °F /  12.8 °C 29.9in /  1012.5hPa WNW 6mph /  9.7km/h 14mph /  22.5km/h 47% 0in /  0.0mm 452 W/m2
15:29 76.3 °F /  24.6 °C 54.5 °F /  12.5 °C 29.9in /  1012.5hPa NW 13mph /  20.9km/h 13mph /  20.9km/h 47% 0in /  0.0mm 443 W/m2
15:34 76.1 °F /  24.5 °C 55 °F /  12.8 °C 29.9in /  1012.5hPa West 6.9mph /  11.1km/h 16mph /  25.7km/h 48% 0in /  0.0mm 320 W/m2
15:39 75.9 °F /  24.4 °C 54.9 °F /  12.7 °C 29.9in /  1012.5hPa WSW 4mph /  6.4km/h 5mph /  8km/h 48% 0in /  0.0mm 334 W/m2
15:44 75.9 °F /  24.4 °C 55.4 °F /  13 °C 29.9in /  1012.9hPa WNW 6.9mph /  11.1km/h 12mph /  19.3km/h 49% 0in /  0.0mm 369 W/m2
15:49 75.7 °F /  24.3 °C 55.2 °F /  12.9 °C 29.9in /  1012.9hPa SW 11mph /  17.7km/h 11mph /  17.7km/h 49% 0in /  0.0mm 346 W/m2
15:54 75.9 °F /  24.4 °C 55.4 °F /  13 °C 29.9in /  1012.9hPa West 6.9mph /  11.1km/h 9mph /  14.5km/h 49% 0in /  0.0mm 334 W/m2
15:59 75.7 °F /  24.3 °C 55.2 °F /  12.9 °C 29.9in /  1012.9hPa WNW 4.9mph /  7.9km/h 8mph /  12.9km/h 49% 0in /  0.0mm 371 W/m2
16:04 75.7 °F /  24.3 °C 55.2 °F /  12.9 °C 29.9in /  1012.9hPa West 4mph /  6.4km/h 9mph /  14.5km/h 49% 0in /  0.0mm 345 W/m2
16:09 75.6 °F /  24.2 °C 55 °F /  12.8 °C 29.9in /  1012.9hPa West 6mph /  9.7km/h 17mph /  27.4km/h 49% 0in /  0.0mm 348 W/m2
16:15 75.4 °F /  24.1 °C 54.9 °F /  12.7 °C 29.9in /  1012.9hPa West 6mph /  9.7km/h 11mph /  17.7km/h 49% 0in /  0.0mm 334 W/m2
16:20 75 °F /  23.9 °C 54.5 °F /  12.5 °C 29.9in /  1012.9hPa West 4mph /  6.4km/h 16mph /  25.7km/h 49% 0in /  0.0mm 297 W/m2
16:25 75.4 °F /  24.1 °C 54.9 °F /  12.7 °C 29.9in /  1012.9hPa WNW 8.1mph /  13km/h 12mph /  19.3km/h 49% 0in /  0.0mm 302 W/m2
16:30 75.2 °F /  24 °C 54.1 °F /  12.3 °C 29.9in /  1012.9hPa WSW 6.9mph /  11.1km/h 13mph /  20.9km/h 48% 0in /  0.0mm 338 W/m2
16:35 75 °F /  23.9 °C 54 °F /  12.2 °C 29.9in /  1012.9hPa NW 4mph /  6.4km/h 9mph /  14.5km/h 48% 0in /  0.0mm 311 W/m2
16:40 75 °F /  23.9 °C 54 °F /  12.2 °C 29.9in /  1012.9hPa NW 4.9mph /  7.9km/h 13mph /  20.9km/h 48% 0in /  0.0mm 318 W/m2
16:45 75 °F /  23.9 °C 54 °F /  12.2 °C 29.9in /  1012.9hPa WNW 2.9mph /  4.7km/h 8mph /  12.9km/h 48% 0in /  0.0mm 323 W/m2
16:50 75.4 °F /  24.1 °C 53.8 °F /  12.1 °C 29.9in /  1012.9hPa NW 4mph /  6.4km/h 8mph /  12.9km/h 47% 0in /  0.0mm 573 W/m2
16:55 75.7 °F /  24.3 °C 54.1 °F /  12.3 °C 29.9in /  1013.2hPa NW 4.9mph /  7.9km/h 14mph /  22.5km/h 47% 0in /  0.0mm 652 W/m2
17:00 75.9 °F /  24.4 °C 54.3 °F /  12.4 °C 29.9in /  1013.2hPa WNW 2.9mph /  4.7km/h 4mph /  6.4km/h 47% 0in /  0.0mm 698 W/m2
17:05 76.1 °F /  24.5 °C 53.8 °F /  12.1 °C 29.9in /  1013.5hPa WNW 6.9mph /  11.1km/h 16mph /  25.7km/h 46% 0in /  0.0mm 279 W/m2
17:10 75.4 °F /  24.1 °C 53.2 °F /  11.8 °C 29.9in /  1013.2hPa NW 4.9mph /  7.9km/h 8mph /  12.9km/h 46% 0in /  0.0mm 257 W/m2
17:15 74.8 °F /  23.8 °C 52.7 °F /  11.5 °C 29.9in /  1013.2hPa WNW 4.9mph /  7.9km/h 13mph /  20.9km/h 46% 0in /  0.0mm 274 W/m2
17:20 74.5 °F /  23.6 °C 52.9 °F /  11.6 °C 29.9in /  1013.2hPa NNW 10.1mph /  16.3km/h 10mph /  16.1km/h 47% 0in /  0.0mm 294 W/m2
17:25 74.5 °F /  23.6 °C 52.9 °F /  11.6 °C 29.9in /  1013.5hPa WNW 8.1mph /  13km/h 9mph /  14.5km/h 47% 0in /  0.0mm 327 W/m2
17:30 74.5 °F /  23.6 °C 52.9 °F /  11.6 °C 29.9in /  1013.5hPa WNW 2.9mph /  4.7km/h 13mph /  20.9km/h 47% 0in /  0.0mm 357 W/m2
17:35 74.3 °F /  23.5 °C 53.4 °F /  11.9 °C 29.9in /  1013.5hPa NW 4mph /  6.4km/h 10mph /  16.1km/h 48% 0in /  0.0mm 355 W/m2
17:40 74.5 °F /  23.6 °C 53.4 °F /  11.9 °C 29.9in /  1013.5hPa West 10.1mph /  16.3km/h 13mph /  20.9km/h 48% 0in /  0.0mm 304 W/m2
17:45 74.3 °F /  23.5 °C 52.7 °F /  11.5 °C 29.9in /  1013.5hPa West 10.1mph /  16.3km/h 11mph /  17.7km/h 47% 0in /  0.0mm 388 W/m2
17:50 74.1 °F /  23.4 °C 53.2 °F /  11.8 °C 29.9in /  1013.5hPa WNW 8.9mph /  14.3km/h 12mph /  19.3km/h 48% 0in /  0.0mm 596 W/m2
17:55 74.1 °F /  23.4 °C 53.2 °F /  11.8 °C 29.9in /  1013.5hPa WSW 8.9mph /  14.3km/h 9mph /  14.5km/h 48% 0in /  0.0mm 357 W/m2
18:00 73.9 °F /  23.3 °C 53.1 °F /  11.7 °C 29.9in /  1013.5hPa North 4.9mph /  7.9km/h 10mph /  16.1km/h 48% 0in /  0.0mm 424 W/m2
18:05 73.9 °F /  23.3 °C 53.1 °F /  11.7 °C 29.9in /  1013.9hPa WNW 2.9mph /  4.7km/h 11mph /  17.7km/h 48% 0in /  0.0mm 297 W/m2
18:10 73.8 °F /  23.2 °C 52.9 °F /  11.6 °C 29.9in /  1013.9hPa NNW 4.9mph /  7.9km/h 12mph /  19.3km/h 48% 0in /  0.0mm 345 W/m2
18:15 73.8 °F /  23.2 °C 52.9 °F /  11.6 °C 29.9in /  1013.9hPa West 2mph /  3.2km/h 8mph /  12.9km/h 48% 0in /  0.0mm 320 W/m2
18:20 73.8 °F /  23.2 °C 52.9 °F /  11.6 °C 29.9in /  1013.9hPa WNW 2.9mph /  4.7km/h 12mph /  19.3km/h 48% 0in /  0.0mm 218 W/m2
18:25 73.6 °F /  23.1 °C 52.7 °F /  11.5 °C 29.9in /  1013.9hPa NW 8.9mph /  14.3km/h 9mph /  14.5km/h 48% 0in /  0.0mm 204 W/m2
18:30 73 °F /  22.8 °C 52.7 °F /  11.5 °C 29.9in /  1013.9hPa West 6.9mph /  11.1km/h 12mph /  19.3km/h 49% 0in /  0.0mm 230 W/m2
18:35 72.9 °F /  22.7 °C 52.5 °F /  11.4 °C 30in /  1014.2hPa WNW 4.9mph /  7.9km/h 8mph /  12.9km/h 49% 0in /  0.0mm 253 W/m2
18:40 72.9 °F /  22.7 °C 52.5 °F /  11.4 °C 30in /  1014.2hPa West 8.9mph /  14.3km/h 12mph /  19.3km/h 49% 0in /  0.0mm 244 W/m2
18:45 73 °F /  22.8 °C 53.2 °F /  11.8 °C 29.9in /  1013.9hPa WNW 2.9mph /  4.7km/h 10mph /  16.1km/h 50% 0in /  0.0mm 410 W/m2
18:50 73.4 °F /  23 °C 53.1 °F /  11.7 °C 30in /  1014.2hPa WNW 4mph /  6.4km/h 12mph /  19.3km/h 49% 0in /  0.0mm 325 W/m2
18:55 73.4 °F /  23 °C 52.5 °F /  11.4 °C 30in /  1014.2hPa WNW 8.1mph /  13km/h 12mph /  19.3km/h 48% 0in /  0.0mm 294 W/m2
19:01 73 °F /  22.8 °C 52.7 °F /  11.5 °C 30in /  1014.2hPa WNW 4mph /  6.4km/h 9mph /  14.5km/h 49% 0in /  0.0mm 241 W/m2
19:06 72.9 °F /  22.7 °C 52.5 °F /  11.4 °C 30in /  1014.2hPa WNW 10.1mph /  16.3km/h 10mph /  16.1km/h 49% 0in /  0.0mm 185 W/m2
19:11 72.5 °F /  22.5 °C 52.9 °F /  11.6 °C 30in /  1014.2hPa WNW 8.1mph /  13km/h 11mph /  17.7km/h 50% 0in /  0.0mm 144 W/m2
19:16 72.3 °F /  22.4 °C 52.7 °F /  11.5 °C 30in /  1014.2hPa NW 6mph /  9.7km/h 8mph /  12.9km/h 50% 0in /  0.0mm 216 W/m2
19:21 72.3 °F /  22.4 °C 52.2 °F /  11.2 °C 30in /  1014.2hPa WNW 8.9mph /  14.3km/h 11mph /  17.7km/h 49% 0in /  0.0mm 199 W/m2
19:26 72.1 °F /  22.3 °C 52.5 °F /  11.4 °C 30in /  1014.6hPa WSW 4.9mph /  7.9km/h 11mph /  17.7km/h 50% 0in /  0.0mm 163 W/m2
19:31 72.1 °F /  22.3 °C 52 °F /  11.1 °C 30in /  1014.6hPa WSW 8.9mph /  14.3km/h 16mph /  25.7km/h 49% 0in /  0.0mm 132 W/m2
19:36 71.8 °F /  22.1 °C 52.2 °F /  11.2 °C 30in /  1014.6hPa North 8.1mph /  13km/h 9mph /  14.5km/h 50% 0in /  0.0mm 74 W/m2
19:41 71.2 °F /  21.8 °C 51.6 °F /  10.9 °C 30in /  1014.6hPa NW 2mph /  3.2km/h 9mph /  14.5km/h 50% 0in /  0.0mm 62 W/m2
19:46 71.1 °F /  21.7 °C 51.4 °F /  10.8 °C 30in /  1014.6hPa West 2mph /  3.2km/h 5mph /  8km/h 50% 0in /  0.0mm 54 W/m2
19:51 71.1 °F /  21.7 °C 51.4 °F /  10.8 °C 30in /  1014.6hPa WNW 12.1mph /  19.5km/h 12mph /  19.3km/h 50% 0in /  0.0mm 91 W/m2
19:56 71.1 °F /  21.7 °C 51.4 °F /  10.8 °C 30in /  1014.6hPa West 8.1mph /  13km/h 9mph /  14.5km/h 50% 0in /  0.0mm 74 W/m2
20:01 70.9 °F /  21.6 °C 50.7 °F /  10.4 °C 30in /  1014.9hPa WSW 8.1mph /  13km/h 11mph /  17.7km/h 49% 0in /  0.0mm 51 W/m2
20:06 70.5 °F /  21.4 °C 50.9 °F /  10.5 °C 30in /  1014.9hPa WSW 2.9mph /  4.7km/h 4mph /  6.4km/h 50% 0in /  0.0mm 69 W/m2
20:11 70.5 °F /  21.4 °C 50.9 °F /  10.5 °C 30in /  1014.9hPa WSW 4mph /  6.4km/h 9mph /  14.5km/h 50% 0in /  0.0mm 114 W/m2
20:16 70.5 °F /  21.4 °C 50.9 °F /  10.5 °C 30in /  1014.9hPa West 4mph /  6.4km/h 6mph /  9.7km/h 50% 0in /  0.0mm 67 W/m2
20:21 70.3 °F /  21.3 °C 50.9 °F /  10.5 °C 30in /  1014.9hPa West 4mph /  6.4km/h 6mph /  9.7km/h 50% 0in /  0.0mm 69 W/m2
20:27 70.3 °F /  21.3 °C 50.9 °F /  10.5 °C 30in /  1014.9hPa WNW 4.9mph /  7.9km/h 5mph /  8km/h 50% 0in /  0.0mm 84 W/m2
20:32 70.3 °F /  21.3 °C 50.9 °F /  10.5 °C 30in /  1014.9hPa WNW 2.9mph /  4.7km/h 5mph /  8km/h 50% 0in /  0.0mm 63 W/m2
20:37 70.2 °F /  21.2 °C 50.7 °F /  10.4 °C 30in /  1015.2hPa WNW 4mph /  6.4km/h 4mph /  6.4km/h 50% 0in /  0.0mm 44 W/m2
20:42 69.8 °F /  21 °C 50.4 °F /  10.2 °C 30in /  1015.2hPa WNW 2.9mph /  4.7km/h 7mph /  11.3km/h 50% 0in /  0.0mm 37 W/m2
20:47 69.4 °F /  20.8 °C 50 °F /  10 °C 30in /  1015.2hPa WSW 2.9mph /  4.7km/h 4mph /  6.4km/h 50% 0in /  0.0mm 30 W/m2
20:52 69.3 °F /  20.7 °C 50.4 °F /  10.2 °C 30in /  1015.2hPa WSW 4.9mph /  7.9km/h 7mph /  11.3km/h 51% 0in /  0.0mm 21 W/m2
20:57 68.9 °F /  20.5 °C 50 °F /  10 °C 30in /  1015.2hPa West 2.9mph /  4.7km/h 7mph /  11.3km/h 51% 0in /  0.0mm 14 W/m2
21:02 68.5 °F /  20.3 °C 50.2 °F /  10.1 °C 30in /  1015.2hPa WNW 2mph /  3.2km/h 3mph /  4.8km/h 52% 0in /  0.0mm 16 W/m2
21:07 68.4 °F /  20.2 °C 50.5 °F /  10.3 °C 30in /  1015.2hPa WNW 4mph /  6.4km/h 7mph /  11.3km/h 53% 0in /  0.0mm 12 W/m2
21:12 68.2 °F /  20.1 °C 50.4 °F /  10.2 °C 30in /  1015.2hPa West 0.9mph /  1.4km/h 3mph /  4.8km/h 53% 0in /  0.0mm 11 W/m2
21:17 67.8 °F /  19.9 °C 50 °F /  10 °C 30in /  1015.2hPa WNW 2mph /  3.2km/h 7mph /  11.3km/h 53% 0in /  0.0mm 7 W/m2
21:22 67.6 °F /  19.8 °C 50.4 °F /  10.2 °C 30in /  1015.2hPa WNW 0.9mph /  1.4km/h 3mph /  4.8km/h 54% 0in /  0.0mm 7 W/m2
21:27 67.5 °F /  19.7 °C 50.7 °F /  10.4 °C 30in /  1015.2hPa NW 2.9mph /  4.7km/h 4mph /  6.4km/h 55% 0in /  0.0mm 5 W/m2
21:32 67.3 °F /  19.6 °C 50.5 °F /  10.3 °C 30in /  1015.6hPa West 2mph /  3.2km/h 3mph /  4.8km/h 55% 0in /  0.0mm 5 W/m2
21:37 67.3 °F /  19.6 °C 50.5 °F /  10.3 °C 30in /  1015.6hPa West 7mph /  11.3km/h 7mph /  11.3km/h 55% 0in /  0.0mm 0 W/m2
21:42 67.1 °F /  19.5 °C 50.4 °F /  10.2 °C 30in /  1015.6hPa WSW 0.9mph /  1.4km/h 2mph /  3.2km/h 55% 0in /  0.0mm 0 W/m2
21:47 66.9 °F /  19.4 °C 50.2 °F /  10.1 °C 30in /  1015.6hPa West 2.9mph /  4.7km/h 4mph /  6.4km/h 55% 0in /  0.0mm 0 W/m2
21:52 66.7 °F /  19.3 °C 50.5 °F /  10.3 °C 30in /  1015.9hPa WNW 2mph /  3.2km/h 3mph /  4.8km/h 56% 0in /  0.0mm 0 W/m2
21:57 66.6 °F /  19.2 °C 50.4 °F /  10.2 °C 30in /  1015.9hPa West 2.9mph /  4.7km/h 4mph /  6.4km/h 56% 0in /  0.0mm 0 W/m2
22:02 66.6 °F /  19.2 °C 50.4 °F /  10.2 °C 30in /  1015.9hPa NW 2mph /  3.2km/h 4mph /  6.4km/h 56% 0in /  0.0mm 0 W/m2
22:07 66.6 °F /  19.2 °C 50.4 °F /  10.2 °C 30in /  1015.9hPa NW 2mph /  3.2km/h 4mph /  6.4km/h 56% 0in /  0.0mm 0 W/m2
22:12 66.4 °F /  19.1 °C 50.7 °F /  10.4 °C 30in /  1015.9hPa NW 0.9mph /  1.4km/h 2mph /  3.2km/h 57% 0in /  0.0mm 0 W/m2
22:17 66.4 °F /  19.1 °C 50.7 °F /  10.4 °C 30in /  1015.9hPa WNW 0.9mph /  1.4km/h 5mph /  8km/h 57% 0in /  0.0mm 0 W/m2
22:22 66 °F /  18.9 °C 50.4 °F /  10.2 °C 30in /  1016.3hPa West 2.9mph /  4.7km/h 3mph /  4.8km/h 57% 0in /  0.0mm 0 W/m2
22:27 65.8 °F /  18.8 °C 50.2 °F /  10.1 °C 30in /  1016.3hPa West 2mph /  3.2km/h 3mph /  4.8km/h 57% 0in /  0.0mm 0 W/m2
22:32 65.7 °F /  18.7 °C 50.5 °F /  10.3 °C 30in /  1016.3hPa WNW 0.9mph /  1.4km/h 4mph /  6.4km/h 58% 0in /  0.0mm 0 W/m2
22:37 65.5 °F /  18.6 °C 50.4 °F /  10.2 °C 30in /  1016.3hPa West 2mph /  3.2km/h 3mph /  4.8km/h 58% 0in /  0.0mm 0 W/m2
22:42 65.5 °F /  18.6 °C 50.4 °F /  10.2 °C 30in /  1016.3hPa WSW 2.9mph /  4.7km/h 4mph /  6.4km/h 58% 0in /  0.0mm 0 W/m2
22:47 65.1 °F /  18.4 °C 50.4 °F /  10.2 °C 30in /  1016.3hPa West 2.9mph /  4.7km/h 4mph /  6.4km/h 59% 0in /  0.0mm 0 W/m2
22:52 65.1 °F /  18.4 °C 50.4 °F /  10.2 °C 30in /  1016.3hPa West 2mph /  3.2km/h 3mph /  4.8km/h 59% 0in /  0.0mm 0 W/m2
22:57 64.9 °F /  18.3 °C 50.2 °F /  10.1 °C 30in /  1016.3hPa WNW 0.9mph /  1.4km/h 4mph /  6.4km/h 59% 0in /  0.0mm 0 W/m2
23:02 64.8 °F /  18.2 °C 50.2 °F /  10.1 °C 30in /  1016.3hPa West 2mph /  3.2km/h 3mph /  4.8km/h 59% 0in /  0.0mm 0 W/m2
23:07 64.8 °F /  18.2 °C 50.2 °F /  10.1 °C 30in /  1016.3hPa West 2mph /  3.2km/h 4mph /  6.4km/h 59% 0in /  0.0mm 0 W/m2
23:13 64.8 °F /  18.2 °C 50.2 °F /  10.1 °C 30in /  1016.3hPa West 0.9mph /  1.4km/h 3mph /  4.8km/h 59% 0in /  0.0mm 0 W/m2
23:18 64.8 °F /  18.2 °C 50.2 °F /  10.1 °C 30in /  1016.3hPa West 2mph /  3.2km/h 4mph /  6.4km/h 59% 0in /  0.0mm 0 W/m2
23:23 64.6 °F /  18.1 °C 50.4 °F /  10.2 °C 30in /  1016.6hPa WSW 0.9mph /  1.4km/h 3mph /  4.8km/h 60% 0in /  0.0mm 0 W/m2
23:28 64.2 °F /  17.9 °C 50 °F /  10 °C 30in /  1016.6hPa WSW 2mph /  3.2km/h 4mph /  6.4km/h 60% 0in /  0.0mm 0 W/m2
23:33 64 °F /  17.8 °C 50.4 °F /  10.2 °C 30in /  1016.6hPa WSW 2mph /  3.2km/h 2mph /  3.2km/h 61% 0in /  0.0mm 0 W/m2
23:38 63.7 °F /  17.6 °C 50 °F /  10 °C 30in /  1016.6hPa WNW 0.9mph /  1.4km/h 2mph /  3.2km/h 61% 0in /  0.0mm 0 W/m2
23:43 63.3 °F /  17.4 °C 50 °F /  10 °C 30in /  1016.6hPa Calm   1mph /  1.6km/h 62% 0in /  0.0mm 0 W/m2
23:48 63 °F /  17.2 °C 49.8 °F /  9.9 °C 30in /  1016.6hPa WNW 0.9mph /  1.4km/h 2mph /  3.2km/h 62% 0in /  0.0mm 0 W/m2
23:53 62.8 °F /  17.1 °C 50 °F /  10 °C 30in /  1016.6hPa WNW 0.9mph /  1.4km/h 2mph /  3.2km/h 63% 0in /  0.0mm 0 W/m2
23:58 62.6 °F /  17 °C 49.8 °F /  9.9 °C 30in /  1016.6hPa WNW 2mph /  3.2km/h 2mph /  3.2km/h 63% 0in /  0.0mm 0 W/m2
Juneau County Weather
Compliments of Weather Underground - 4 mb